createdAt,value
2019-03-19T00:00:47.810Z,96.88
2019-03-19T00:01:47.946Z,96.40
2019-03-19T00:02:48.100Z,95.83
2019-03-19T00:03:48.266Z,96.02
2019-03-19T00:04:48.409Z,95.83
2019-03-19T00:05:48.571Z,95.45
2019-03-19T00:06:48.727Z,95.55
2019-03-19T00:07:48.900Z,95.93
2019-03-19T00:08:49.060Z,96.31
2019-03-19T00:09:49.212Z,96.50
2019-03-19T00:10:49.372Z,96.31
2019-03-19T00:11:49.536Z,96.02
2019-03-19T00:12:49.695Z,95.93
2019-03-19T00:13:49.863Z,96.02
2019-03-19T00:14:50.008Z,95.64
2019-03-19T00:15:50.166Z,96.02
2019-03-19T00:16:50.332Z,96.12
2019-03-19T00:17:50.477Z,95.45
2019-03-19T00:18:50.649Z,95.07
2019-03-19T00:19:50.806Z,95.07
2019-03-19T00:20:50.953Z,94.89
2019-03-19T00:21:51.126Z,95.45
2019-03-19T00:22:51.294Z,95.64
2019-03-19T00:23:51.462Z,95.45
2019-03-19T00:24:51.640Z,95.93
2019-03-19T00:25:53.179Z,96.50
2019-03-19T00:26:51.942Z,96.40
2019-03-19T00:27:52.100Z,96.31
2019-03-19T00:28:52.302Z,95.83
2019-03-19T00:29:52.418Z,95.93
2019-03-19T00:30:52.580Z,96.31
2019-03-19T00:31:52.741Z,96.31
2019-03-19T00:32:52.900Z,96.69
2019-03-19T00:33:53.061Z,97.25
2019-03-19T00:34:53.220Z,97.16
2019-03-19T00:35:53.406Z,97.11
2019-03-19T00:36:53.571Z,97.30
2019-03-19T00:37:53.734Z,97.35
2019-03-19T00:38:53.905Z,97.25
2019-03-19T00:39:54.051Z,97.44
2019-03-19T00:40:54.205Z,97.54
2019-03-19T00:41:54.370Z,97.30
2019-03-19T00:42:54.526Z,97.35
2019-03-19T00:43:54.678Z,97.16
2019-03-19T00:44:54.843Z,96.69
2019-03-19T00:45:55.015Z,96.40
2019-03-19T00:46:55.185Z,96.88
2019-03-19T00:47:55.355Z,96.88
2019-03-19T00:48:55.528Z,96.12
2019-03-19T00:49:55.705Z,96.69
2019-03-19T00:50:55.863Z,96.88
2019-03-19T00:51:56.045Z,96.59
2019-03-19T00:52:56.202Z,97.73
2019-03-19T00:53:56.373Z,98.01
2019-03-19T00:54:56.544Z,98.06
2019-03-19T00:55:56.709Z,98.34
2019-03-19T00:56:56.886Z,98.39
2019-03-19T00:58:04.677Z,98.77
2019-03-19T00:58:57.212Z,97.82
2019-03-19T00:59:57.380Z,97.16
2019-03-19T01:00:57.551Z,97.63
2019-03-19T01:01:57.723Z,97.30
2019-03-19T01:02:57.893Z,97.20
2019-03-19T01:03:58.063Z,97.77
2019-03-19T01:04:58.248Z,97.49
2019-03-19T01:06:58.574Z,98.15
2019-03-19T01:07:58.817Z,97.68
2019-03-19T01:08:58.919Z,97.77
2019-03-19T01:09:59.092Z,97.30
2019-03-19T01:10:59.263Z,97.39
2019-03-19T01:11:59.438Z,97.20
2019-03-19T01:12:59.608Z,98.15
2019-03-19T01:13:59.773Z,98.06
2019-03-19T01:14:59.948Z,98.34
2019-03-19T01:16:00.116Z,98.63
2019-03-19T01:17:00.293Z,99.33
2019-03-19T01:18:00.457Z,99.66
2019-03-19T01:19:00.636Z,99.62
2019-03-19T01:20:00.798Z,99.85
2019-03-19T01:21:00.973Z,99.29
2019-03-19T01:22:01.144Z,98.91
2019-03-19T01:23:01.328Z,98.91
2019-03-19T01:24:01.499Z,99.01
2019-03-19T01:25:01.670Z,99.19
2019-03-19T01:26:01.840Z,99.10
2019-03-19T01:27:02.009Z,99.19
2019-03-19T01:28:02.179Z,99.38
2019-03-19T01:29:02.348Z,99.57
2019-03-19T01:30:02.525Z,99.29
2019-03-19T01:31:02.735Z,99.38
2019-03-19T01:32:02.869Z,99.57
2019-03-19T01:33:03.034Z,99.85
2019-03-19T01:34:03.207Z,99.76
2019-03-19T01:35:03.364Z,99.38
2019-03-19T01:36:03.544Z,99.57
2019-03-19T01:37:03.708Z,99.95
2019-03-19T01:38:03.883Z,99.48
2019-03-19T01:39:04.056Z,99.99
2019-03-19T01:40:04.241Z,99.99
2019-03-19T01:41:04.398Z,99.99
2019-03-19T01:42:04.568Z,99.99
2019-03-19T01:43:04.791Z,99.76
2019-03-19T01:44:04.905Z,99.99
2019-03-19T01:45:05.073Z,99.99
2019-03-19T01:46:05.247Z,99.99
2019-03-19T01:47:05.468Z,99.99
2019-03-19T01:48:05.586Z,99.99
2019-03-19T01:49:05.758Z,99.99
2019-03-19T01:50:05.925Z,99.99
2019-03-19T01:51:06.084Z,99.99
2019-03-19T01:52:06.275Z,99.99
2019-03-19T01:53:06.433Z,99.99
2019-03-19T01:54:06.600Z,99.99
2019-03-19T01:55:06.775Z,99.99
2019-03-19T01:56:06.947Z,99.99
2019-03-19T01:57:07.124Z,99.99
2019-03-19T01:58:07.285Z,99.99
2019-03-19T01:59:07.465Z,99.99
2019-03-19T02:00:07.634Z,99.99
2019-03-19T02:01:07.801Z,99.99
2019-03-19T02:02:07.978Z,99.99
2019-03-19T02:03:08.143Z,99.99
2019-03-19T02:04:08.311Z,99.99
2019-03-19T02:05:08.484Z,99.99
2019-03-19T02:06:08.654Z,99.99
2019-03-19T02:07:08.831Z,99.99
2019-03-19T02:08:09.002Z,99.99
2019-03-19T02:09:09.169Z,99.99
2019-03-19T02:10:09.346Z,99.99
2019-03-19T02:11:09.511Z,99.99
2019-03-19T02:12:09.686Z,99.99
2019-03-19T02:13:09.859Z,99.99
2019-03-19T02:14:10.029Z,99.99
2019-03-19T02:15:10.200Z,99.99
2019-03-19T02:16:10.369Z,99.99
2019-03-19T02:17:12.562Z,99.99
2019-03-19T02:18:10.712Z,99.99
2019-03-19T02:19:10.871Z,99.62
2019-03-19T02:20:11.040Z,99.80
2019-03-19T02:21:11.211Z,99.62
2019-03-19T02:22:11.387Z,99.90
2019-03-19T02:23:11.550Z,99.90
2019-03-19T02:24:11.722Z,99.52
2019-03-19T02:25:11.893Z,99.43
2019-03-19T02:26:16.328Z,99.71
2019-03-19T02:27:12.238Z,99.99
2019-03-19T02:28:12.409Z,99.99
2019-03-19T02:29:12.570Z,99.99
2019-03-19T02:30:12.780Z,99.99
2019-03-19T02:31:12.922Z,99.99
2019-03-19T02:32:13.092Z,99.99
2019-03-19T02:33:13.263Z,99.99
2019-03-19T02:34:13.435Z,99.99
2019-03-19T02:35:13.645Z,99.99
2019-03-19T02:36:13.769Z,99.99
2019-03-19T02:37:13.956Z,99.99
2019-03-19T02:38:14.123Z,99.99
2019-03-19T02:39:14.288Z,99.99
2019-03-19T02:40:14.453Z,99.99
2019-03-19T02:41:14.619Z,99.99
2019-03-19T02:42:14.788Z,99.99
2019-03-19T02:43:14.958Z,99.99
2019-03-19T02:44:15.120Z,99.99
2019-03-19T02:45:15.300Z,99.99
2019-03-19T02:46:15.481Z,99.99
2019-03-19T02:47:15.640Z,99.99
2019-03-19T02:48:15.812Z,99.99
2019-03-19T02:49:16.001Z,99.71
2019-03-19T02:50:16.162Z,99.24
2019-03-19T02:51:16.337Z,99.33
2019-03-19T02:52:16.501Z,99.52
2019-03-19T02:53:16.665Z,99.99
2019-03-19T02:54:16.830Z,99.99
2019-03-19T02:55:17.015Z,99.99
2019-03-19T02:56:31.721Z,99.99
2019-03-19T02:57:17.355Z,99.99
2019-03-19T02:58:17.524Z,99.99
2019-03-19T02:59:17.714Z,99.99
2019-03-19T03:00:17.865Z,99.99
2019-03-19T03:01:18.031Z,99.99
2019-03-19T03:02:18.215Z,99.99
2019-03-19T03:03:18.382Z,99.99
2019-03-19T03:04:18.545Z,99.99
2019-03-19T03:05:18.710Z,99.99
2019-03-19T03:06:18.911Z,99.99
2019-03-19T03:07:19.072Z,99.99
2019-03-19T03:08:19.231Z,99.99
2019-03-19T03:09:19.399Z,99.99
2019-03-19T03:10:19.570Z,99.99
2019-03-19T03:11:19.744Z,99.99
2019-03-19T03:12:19.914Z,99.99
2019-03-19T03:13:20.080Z,99.99
2019-03-19T03:14:20.253Z,99.99
2019-03-19T03:15:20.421Z,99.99
2019-03-19T03:16:20.593Z,99.99
2019-03-19T03:17:20.764Z,99.99
2019-03-19T03:18:20.956Z,99.99
2019-03-19T03:19:21.105Z,99.99
2019-03-19T03:20:21.287Z,99.99
2019-03-19T03:21:21.457Z,99.99
2019-03-19T03:22:21.614Z,99.99
2019-03-19T03:23:21.799Z,99.99
2019-03-19T03:24:21.955Z,99.99
2019-03-19T03:25:22.130Z,99.99
2019-03-19T03:26:22.314Z,99.99
2019-03-19T03:27:22.484Z,99.99
2019-03-19T03:28:22.652Z,99.99
2019-03-19T03:29:22.814Z,99.99
2019-03-19T03:30:23.019Z,99.99
2019-03-19T03:31:23.331Z,99.99
2019-03-19T03:32:23.323Z,99.99
2019-03-19T03:33:23.547Z,99.62
2019-03-19T03:34:23.663Z,99.99
2019-03-19T03:35:23.843Z,99.80
2019-03-19T03:36:24.032Z,99.71
2019-03-19T03:37:24.177Z,99.90
2019-03-19T03:38:24.357Z,99.99
2019-03-19T03:39:24.519Z,99.99
2019-03-19T03:40:24.685Z,99.99
2019-03-19T03:41:24.858Z,99.99
2019-03-19T03:42:25.029Z,99.99
2019-03-19T03:43:25.202Z,99.80
2019-03-19T03:44:25.366Z,99.90
2019-03-19T03:45:25.543Z,99.33
2019-03-19T03:46:25.707Z,99.71
2019-03-19T03:47:25.882Z,99.05
2019-03-19T03:48:26.053Z,99.99
2019-03-19T03:49:26.229Z,99.90
2019-03-19T03:50:26.400Z,99.99
2019-03-19T03:51:26.570Z,99.99
2019-03-19T03:52:26.738Z,99.71
2019-03-19T03:53:26.907Z,99.80
2019-03-19T03:54:27.083Z,99.52
2019-03-19T03:55:27.257Z,99.62
2019-03-19T03:56:27.407Z,99.62
2019-03-19T03:57:27.612Z,99.80
2019-03-19T03:58:27.752Z,99.71
2019-03-19T03:59:27.921Z,99.33
2019-03-19T04:00:28.090Z,99.24
2019-03-19T04:01:28.262Z,98.67
2019-03-19T04:02:28.432Z,98.58
2019-03-19T04:03:28.603Z,99.33
2019-03-19T04:04:28.766Z,99.38
2019-03-19T04:05:28.939Z,99.85
2019-03-19T04:06:29.113Z,99.66
2019-03-19T04:07:29.292Z,99.99
2019-03-19T04:08:29.452Z,99.99
2019-03-19T04:09:29.622Z,99.99
2019-03-19T04:10:29.793Z,99.99
2019-03-19T04:11:29.964Z,99.99
2019-03-19T04:12:30.134Z,99.99
2019-03-19T04:13:30.309Z,99.99
2019-03-19T04:14:30.481Z,99.99
2019-03-19T04:15:30.650Z,99.90
2019-03-19T04:16:30.817Z,99.90
2019-03-19T04:17:30.993Z,99.52
2019-03-19T04:18:31.142Z,99.99
2019-03-19T04:19:31.310Z,99.99
2019-03-19T04:20:31.491Z,99.99
2019-03-19T04:21:31.647Z,99.99
2019-03-19T04:22:31.827Z,99.99
2019-03-19T04:23:32.004Z,99.99
2019-03-19T04:24:32.167Z,99.99
2019-03-19T04:25:32.339Z,99.43
2019-03-19T04:26:32.507Z,99.80
2019-03-19T04:27:32.673Z,99.71
2019-03-19T04:28:32.848Z,98.96
2019-03-19T04:29:33.024Z,98.96
2019-03-19T04:30:33.201Z,99.24
2019-03-19T04:31:33.370Z,99.99
2019-03-19T04:32:33.538Z,99.62
2019-03-19T04:33:33.702Z,99.99
2019-03-19T04:34:33.875Z,99.99
2019-03-19T04:35:34.046Z,99.99
2019-03-19T04:36:34.222Z,99.99
2019-03-19T04:37:34.397Z,99.99
2019-03-19T04:38:43.053Z,99.99
2019-03-19T04:39:34.712Z,99.99
2019-03-19T04:40:34.882Z,99.99
2019-03-19T04:41:35.049Z,99.99
2019-03-19T04:42:35.222Z,99.99
2019-03-19T04:43:35.404Z,99.99
2019-03-19T04:44:35.560Z,99.99
2019-03-19T04:45:35.730Z,99.99
2019-03-19T04:46:35.903Z,99.99
2019-03-19T04:47:36.070Z,99.99
2019-03-19T04:48:36.240Z,99.99
2019-03-19T04:49:36.410Z,99.99
2019-03-19T04:50:36.583Z,99.99
2019-03-19T04:51:36.752Z,99.99
2019-03-19T04:52:36.923Z,99.99
2019-03-19T04:53:37.094Z,99.99
2019-03-19T04:54:37.262Z,99.99
2019-03-19T04:55:37.430Z,99.99
2019-03-19T04:56:37.607Z,99.99
2019-03-19T04:57:37.779Z,99.99
2019-03-19T04:58:37.947Z,99.99
2019-03-19T04:59:38.117Z,99.99
2019-03-19T05:00:38.281Z,99.99
2019-03-19T05:01:38.458Z,99.99
2019-03-19T05:02:38.625Z,99.99
2019-03-19T05:03:38.806Z,99.99
2019-03-19T05:04:38.974Z,99.99
2019-03-19T05:05:39.141Z,99.99
2019-03-19T05:06:39.311Z,99.99
2019-03-19T05:07:39.497Z,99.99
2019-03-19T05:08:39.651Z,99.99
2019-03-19T05:09:39.827Z,99.99
2019-03-19T05:10:39.996Z,99.99
2019-03-19T05:11:40.189Z,99.85
2019-03-19T05:12:40.334Z,99.85
2019-03-19T05:13:40.499Z,99.66
2019-03-19T05:14:40.671Z,99.38
2019-03-19T05:15:40.842Z,99.99
2019-03-19T05:16:41.003Z,99.85
2019-03-19T05:17:41.174Z,99.99
2019-03-19T05:18:41.345Z,99.85
2019-03-19T05:19:41.516Z,99.99
2019-03-19T05:20:41.698Z,99.99
2019-03-19T05:21:41.855Z,99.99
2019-03-19T05:22:42.020Z,99.99
2019-03-19T05:23:42.193Z,99.99
2019-03-19T05:24:42.364Z,99.99
2019-03-19T05:25:42.547Z,99.99
2019-03-19T05:26:42.708Z,99.99
2019-03-19T05:27:42.879Z,99.99
2019-03-19T05:28:43.053Z,99.99
2019-03-19T05:29:43.222Z,99.99
2019-03-19T05:30:43.404Z,99.99
2019-03-19T05:31:43.575Z,99.99
2019-03-19T05:32:43.750Z,99.99
2019-03-19T05:33:43.905Z,99.99
2019-03-19T05:34:44.076Z,99.99
2019-03-19T05:35:44.245Z,99.99
2019-03-19T05:36:44.412Z,99.99
2019-03-19T05:37:44.598Z,99.99
2019-03-19T05:38:44.760Z,99.99
2019-03-19T05:39:44.922Z,99.99
2019-03-19T05:40:45.089Z,99.99
2019-03-19T05:41:45.266Z,99.99
2019-03-19T05:42:45.426Z,99.99
2019-03-19T05:43:45.594Z,99.99
2019-03-19T05:44:45.756Z,99.99
2019-03-19T05:45:45.928Z,99.99
2019-03-19T05:46:46.095Z,99.99
2019-03-19T05:47:46.271Z,99.99
2019-03-19T05:48:46.438Z,99.99
2019-03-19T05:49:46.612Z,99.99
2019-03-19T05:50:46.783Z,99.99
2019-03-19T05:51:46.960Z,99.99
2019-03-19T05:52:48.535Z,99.99
2019-03-19T05:53:47.298Z,99.99
2019-03-19T05:54:47.467Z,99.99
2019-03-19T05:55:47.636Z,99.99
2019-03-19T05:56:47.808Z,99.52
2019-03-19T05:57:50.343Z,98.67
2019-03-19T05:58:48.137Z,98.67
2019-03-19T05:59:48.312Z,98.48
2019-03-19T06:00:48.471Z,98.29
2019-03-19T06:01:48.651Z,98.29
2019-03-19T06:02:48.817Z,98.10
2019-03-19T06:03:48.988Z,98.39
2019-03-19T06:04:49.154Z,97.72
2019-03-19T06:05:49.326Z,97.72
2019-03-19T06:06:49.516Z,97.63
2019-03-19T06:07:49.683Z,98.58
2019-03-19T06:08:49.861Z,98.48
2019-03-19T06:09:50.029Z,97.91
2019-03-19T06:10:50.198Z,98.29
2019-03-19T06:11:50.378Z,98.10
2019-03-19T06:12:50.553Z,98.67
2019-03-19T06:13:50.729Z,98.86
2019-03-19T06:14:50.913Z,98.67
2019-03-19T06:15:51.077Z,98.29
2019-03-19T06:16:51.248Z,98.39
2019-03-19T06:17:51.949Z,98.34
2019-03-19T06:18:51.632Z,97.58
2019-03-19T06:19:51.800Z,96.21
2019-03-19T06:20:51.962Z,94.79
2019-03-19T06:21:52.139Z,91.62
2019-03-19T06:22:52.313Z,89.63
2019-03-19T06:23:52.490Z,87.68
2019-03-19T06:24:52.663Z,85.88
2019-03-19T06:28:25.071Z,82.79
2019-03-19T06:29:25.262Z,81.56
2019-03-19T06:30:26.070Z,80.71
2019-03-19T06:31:25.588Z,80.94
2019-03-19T06:32:25.745Z,79.71
2019-03-19T06:33:25.927Z,78.99
2019-03-19T06:34:26.100Z,77.18
2019-03-19T06:35:26.272Z,76.37
2019-03-19T06:36:26.451Z,75.60
2019-03-19T06:37:26.613Z,74.94
2019-03-19T06:38:26.783Z,74.56
2019-03-19T06:39:26.962Z,73.84
2019-03-19T06:40:27.126Z,72.89
2019-03-19T06:41:27.306Z,72.70
2019-03-19T06:42:27.484Z,72.51
2019-03-19T06:43:27.652Z,71.84
2019-03-19T06:44:27.837Z,72.35
2019-03-19T06:45:28.000Z,72.60
2019-03-19T06:46:28.175Z,72.51
2019-03-19T06:47:28.351Z,71.50
2019-03-19T06:48:28.532Z,71.56
2019-03-19T06:49:28.704Z,72.32
2019-03-19T06:50:28.883Z,71.88
2019-03-19T06:51:29.062Z,71.22
2019-03-19T06:52:29.232Z,71.50
2019-03-19T06:53:29.420Z,72.22
2019-03-19T06:54:29.750Z,72.55
2019-03-19T06:55:29.754Z,71.84
2019-03-19T06:56:29.933Z,71.59
2019-03-19T06:57:38.955Z,71.27
2019-03-19T06:58:30.279Z,72.28
2019-03-19T06:59:30.465Z,72.51
2019-03-19T07:00:30.642Z,72.32
2019-03-19T07:01:30.817Z,71.56
2019-03-19T07:02:31.000Z,72.41
2019-03-19T07:03:31.172Z,72.56
2019-03-19T07:04:31.361Z,74.68
2019-03-19T07:05:31.522Z,75.67
2019-03-19T07:06:31.716Z,75.60
2019-03-19T07:07:31.969Z,74.60
2019-03-19T07:08:32.055Z,74.22
2019-03-19T07:09:32.237Z,73.18
2019-03-19T07:10:32.414Z,72.70
2019-03-19T07:11:32.601Z,72.70
2019-03-19T07:12:32.770Z,72.70
2019-03-19T07:13:32.953Z,72.79
2019-03-19T07:14:33.138Z,72.41
2019-03-19T07:15:33.301Z,72.66
2019-03-19T07:16:33.482Z,72.99
2019-03-19T07:17:33.656Z,72.79
2019-03-19T07:19:34.007Z,71.94
2019-03-19T07:20:34.179Z,71.78
2019-03-19T07:21:34.359Z,71.22
2019-03-19T07:22:34.539Z,70.26
2019-03-19T07:23:34.723Z,70.17
2019-03-19T07:24:34.900Z,70.36
2019-03-19T07:25:35.083Z,70.36
2019-03-19T07:26:35.257Z,70.17
2019-03-19T07:27:35.463Z,70.20
2019-03-19T07:28:35.644Z,69.25
2019-03-19T07:29:35.872Z,68.59
2019-03-19T07:30:35.989Z,68.49
2019-03-19T07:31:36.169Z,68.24
2019-03-19T07:32:36.361Z,67.47
2019-03-19T07:33:36.524Z,66.72
2019-03-19T07:34:36.702Z,66.91
2019-03-19T07:35:36.881Z,67.67
2019-03-19T07:36:37.065Z,67.10
2019-03-19T07:37:37.249Z,66.72
2019-03-19T07:38:37.424Z,67.00
2019-03-19T07:39:37.607Z,67.10
2019-03-19T07:40:37.783Z,66.87
2019-03-19T07:41:37.962Z,67.82
2019-03-19T07:42:38.144Z,67.86
2019-03-19T07:43:38.311Z,67.10
2019-03-19T07:44:38.492Z,67.19
2019-03-19T07:45:38.677Z,67.00
2019-03-19T07:46:38.850Z,66.75
2019-03-19T07:47:39.029Z,65.61
2019-03-19T07:48:39.436Z,64.69
2019-03-19T07:49:39.576Z,64.50
2019-03-19T07:50:39.522Z,63.83
2019-03-19T07:51:39.700Z,63.00
2019-03-19T07:52:39.881Z,62.81
2019-03-19T07:53:40.059Z,62.52
2019-03-19T07:54:40.238Z,61.51
2019-03-19T07:55:40.411Z,60.65
2019-03-19T07:56:40.597Z,60.08
2019-03-19T07:57:40.790Z,60.17
2019-03-19T07:58:45.395Z,59.79
2019-03-19T07:59:41.173Z,60.11
2019-03-19T08:00:41.397Z,59.73
2019-03-19T08:01:41.545Z,59.89
2019-03-19T08:02:41.726Z,60.08
2019-03-19T08:03:41.897Z,60.30
2019-03-19T08:04:42.081Z,62.85
2019-03-19T08:05:42.258Z,64.31
2019-03-19T08:06:42.438Z,63.39
2019-03-19T08:07:42.616Z,63.04
2019-03-19T08:08:42.796Z,62.43
2019-03-19T08:09:42.974Z,63.20
2019-03-19T08:10:43.156Z,63.00
2019-03-19T08:11:43.345Z,62.81
2019-03-19T08:12:43.525Z,63.10
2019-03-19T08:13:43.703Z,62.24
2019-03-19T08:14:44.025Z,62.18
2019-03-19T08:15:44.062Z,61.70
2019-03-19T08:16:44.255Z,60.87
2019-03-19T08:17:44.429Z,59.99
2019-03-19T08:18:44.596Z,60.46
2019-03-19T08:19:44.774Z,60.49
2019-03-19T08:20:44.952Z,59.92
2019-03-19T08:21:45.130Z,60.17
2019-03-19T08:22:45.321Z,61.70
2019-03-19T08:23:45.491Z,61.22
2019-03-19T08:24:45.676Z,60.78
2019-03-19T08:25:45.854Z,60.30
2019-03-19T08:26:46.038Z,61.51
2019-03-19T08:27:46.284Z,61.73
2019-03-19T08:28:55.036Z,60.81
2019-03-19T08:29:46.571Z,59.95
2019-03-19T08:30:46.760Z,59.76
2019-03-19T08:31:46.949Z,59.19
2019-03-19T08:32:47.113Z,59.31
2019-03-19T08:33:47.282Z,59.02
2019-03-19T08:34:47.457Z,58.26
2019-03-19T08:35:47.638Z,59.16
2019-03-19T08:36:47.823Z,60.21
2019-03-19T08:37:48.006Z,59.92
2019-03-19T08:38:48.187Z,61.07
2019-03-19T08:39:48.371Z,60.24
2019-03-19T08:40:50.942Z,60.24
2019-03-19T08:41:48.721Z,59.76
2019-03-19T08:42:48.918Z,59.95
2019-03-19T08:43:49.084Z,60.78
2019-03-19T08:44:49.276Z,60.07
2019-03-19T08:45:49.441Z,58.99
2019-03-19T08:46:49.618Z,60.17
2019-03-19T08:47:49.812Z,61.29
2019-03-19T08:48:49.972Z,62.81
2019-03-19T08:49:50.151Z,61.99
2019-03-19T08:50:50.388Z,60.49
2019-03-19T08:51:50.531Z,59.92
2019-03-19T08:52:50.714Z,59.92
2019-03-19T08:53:50.889Z,58.84
2019-03-19T08:54:51.061Z,58.84
2019-03-19T08:55:51.247Z,58.72
2019-03-19T08:56:51.429Z,60.11
2019-03-19T08:57:51.605Z,62.37
2019-03-19T08:58:51.780Z,63.51
2019-03-19T08:59:51.960Z,64.34
2019-03-19T09:00:52.134Z,64.15
2019-03-19T09:01:52.314Z,63.29
2019-03-19T09:02:52.505Z,63.01
2019-03-19T09:03:52.665Z,62.43
2019-03-19T09:04:52.856Z,62.05
2019-03-19T09:05:53.034Z,61.25
2019-03-19T09:06:53.207Z,59.22
2019-03-19T09:07:53.382Z,56.58
2019-03-19T09:08:53.557Z,54.60
2019-03-19T09:09:53.733Z,53.00
2019-03-19T09:10:53.931Z,52.75
2019-03-19T09:11:54.116Z,52.19
2019-03-19T09:12:54.264Z,53.62
2019-03-19T09:13:54.442Z,53.39
2019-03-19T09:14:54.619Z,52.53
2019-03-19T09:15:54.800Z,51.41
2019-03-19T09:16:54.963Z,50.35
2019-03-19T09:17:55.142Z,50.93
2019-03-19T09:18:55.323Z,49.69
2019-03-19T09:19:55.506Z,49.23
2019-03-19T09:20:55.681Z,49.04
2019-03-19T09:21:55.859Z,48.16
2019-03-19T09:22:56.216Z,50.02
2019-03-19T09:23:56.219Z,51.62
2019-03-19T09:24:56.401Z,52.57
2019-03-19T09:25:56.592Z,53.02
2019-03-19T09:26:56.765Z,54.36
2019-03-19T09:27:56.963Z,55.47
2019-03-19T09:28:57.140Z,56.52
2019-03-19T09:29:57.325Z,56.81
2019-03-19T09:30:57.516Z,57.54
2019-03-19T09:31:57.673Z,57.89
2019-03-19T09:32:57.853Z,58.78
2019-03-19T09:33:58.023Z,58.78
2019-03-19T09:34:58.201Z,59.06
2019-03-19T09:35:58.375Z,58.91
2019-03-19T09:36:58.571Z,56.58
2019-03-19T09:37:59.331Z,54.70
2019-03-19T09:38:58.911Z,52.53
2019-03-19T09:39:59.086Z,50.33
2019-03-19T09:40:59.273Z,49.85
2019-03-19T09:41:59.446Z,49.93
2019-03-19T09:42:59.633Z,50.09
2019-03-19T09:43:59.801Z,51.31
2019-03-19T09:44:59.978Z,52.83
2019-03-19T09:46:00.163Z,54.17
2019-03-19T09:47:00.340Z,53.47
2019-03-19T09:48:00.520Z,54.90
2019-03-19T09:49:00.705Z,54.29
2019-03-19T09:50:00.879Z,53.41
2019-03-19T09:51:01.068Z,53.47
2019-03-19T09:52:01.237Z,54.04
2019-03-19T09:53:01.448Z,54.61
2019-03-19T09:54:01.593Z,55.47
2019-03-19T09:55:01.798Z,56.24
2019-03-19T09:56:01.948Z,55.88
2019-03-19T09:57:02.127Z,54.29
2019-03-19T09:58:02.316Z,52.40
2019-03-19T09:59:02.493Z,51.67
2019-03-19T10:00:02.664Z,50.26
2019-03-19T10:01:02.818Z,49.30
2019-03-19T10:02:03.000Z,49.33
2019-03-19T10:03:03.196Z,48.66
2019-03-19T10:04:03.360Z,46.66
2019-03-19T10:05:03.526Z,45.77
2019-03-19T10:06:13.615Z,46.22
2019-03-19T10:07:06.379Z,46.68
2019-03-19T10:08:04.051Z,48.57
2019-03-19T10:09:04.226Z,48.35
2019-03-19T10:10:04.431Z,49.18
2019-03-19T10:11:04.573Z,50.32
2019-03-19T10:12:04.802Z,51.18
2019-03-19T10:13:04.940Z,52.40
2019-03-19T10:14:05.107Z,52.52
2019-03-19T10:15:05.288Z,51.97
2019-03-19T10:16:07.602Z,51.64
2019-03-19T10:17:05.638Z,50.24
2019-03-19T10:18:05.823Z,48.44
2019-03-19T10:19:05.994Z,48.21
2019-03-19T10:20:06.173Z,49.35
2019-03-19T10:21:06.374Z,49.80
2019-03-19T10:22:06.551Z,50.35
2019-03-19T10:23:06.721Z,51.66
2019-03-19T10:24:06.895Z,52.14
2019-03-19T10:25:07.079Z,52.23
2019-03-19T10:26:07.254Z,52.78
2019-03-19T10:27:07.424Z,52.97
2019-03-19T10:28:07.607Z,53.54
2019-03-19T10:29:07.808Z,54.21
2019-03-19T10:30:07.962Z,54.39
2019-03-19T10:31:08.145Z,54.78
2019-03-19T10:32:08.336Z,54.24
2019-03-19T10:33:08.497Z,53.78
2019-03-19T10:34:08.676Z,52.64
2019-03-19T10:35:08.877Z,51.12
2019-03-19T10:36:11.908Z,51.18
2019-03-19T10:37:09.636Z,51.33
2019-03-19T10:38:09.803Z,50.73
2019-03-19T10:39:11.118Z,50.63
2019-03-19T10:40:11.040Z,51.21
2019-03-19T10:41:10.311Z,51.52
2019-03-19T10:42:10.633Z,49.54
2019-03-19T10:43:10.813Z,48.11
2019-03-19T10:44:11.573Z,47.37
2019-03-19T10:45:10.895Z,45.87
2019-03-19T10:46:11.461Z,44.91
2019-03-19T10:47:11.374Z,43.98
2019-03-19T10:48:11.807Z,43.50
2019-03-19T10:49:12.016Z,42.83
2019-03-19T10:50:11.816Z,43.46
2019-03-19T10:51:12.306Z,44.17
2019-03-19T10:52:13.033Z,46.44
2019-03-19T10:53:12.437Z,47.18
2019-03-19T10:54:12.645Z,48.52
2019-03-19T10:55:12.905Z,49.18
2019-03-19T10:56:14.172Z,49.18
2019-03-19T10:57:13.246Z,49.56
2019-03-19T10:58:14.524Z,50.23
2019-03-19T10:59:13.954Z,51.09
2019-03-19T11:00:13.506Z,51.28
2019-03-19T11:01:13.682Z,51.47
2019-03-19T11:02:13.847Z,51.47
2019-03-19T11:03:14.065Z,51.64
2019-03-19T11:04:14.212Z,52.40
2019-03-19T11:05:14.382Z,51.92
2019-03-19T11:06:14.552Z,52.68
2019-03-19T11:07:15.344Z,52.56
2019-03-19T11:08:14.896Z,52.68
2019-03-19T11:09:15.066Z,51.12
2019-03-19T11:10:15.238Z,49.90
2019-03-19T11:11:15.386Z,48.39
2019-03-19T11:12:15.551Z,46.70
2019-03-19T11:13:15.735Z,45.39
2019-03-19T11:14:15.955Z,43.88
2019-03-19T11:15:16.346Z,41.80
2019-03-19T11:16:16.324Z,40.02
2019-03-19T11:17:16.646Z,39.81
2019-03-19T11:18:19.404Z,38.87
2019-03-19T11:19:17.043Z,38.39
2019-03-19T11:20:17.621Z,37.63
2019-03-19T11:21:18.507Z,36.96
2019-03-19T11:22:18.518Z,36.69
2019-03-19T11:23:17.958Z,36.90
2019-03-19T11:24:18.007Z,36.91
2019-03-19T11:25:18.254Z,36.24
2019-03-19T11:26:18.796Z,35.75
2019-03-19T11:27:19.643Z,36.40
2019-03-19T11:28:18.646Z,37.36
2019-03-19T11:29:19.100Z,37.92
2019-03-19T11:30:20.222Z,38.30
2019-03-19T11:31:19.718Z,39.14
2019-03-19T11:32:20.727Z,39.50
2019-03-19T11:33:20.141Z,40.44
2019-03-19T11:34:20.261Z,41.11
2019-03-19T11:35:19.865Z,40.82
2019-03-19T11:36:21.652Z,41.30
2019-03-19T11:37:21.446Z,41.58
2019-03-19T11:38:20.476Z,41.38
2019-03-19T11:39:20.828Z,42.52
2019-03-19T11:40:20.915Z,43.09
2019-03-19T11:41:20.940Z,43.74
2019-03-19T11:42:21.217Z,44.70
2019-03-19T11:43:23.296Z,45.06
2019-03-19T11:44:21.620Z,45.82
2019-03-19T11:45:21.809Z,45.99
2019-03-19T11:46:21.959Z,46.56
2019-03-19T11:47:22.223Z,47.68
2019-03-19T11:48:22.285Z,48.32
2019-03-19T11:49:22.489Z,48.92
2019-03-19T11:50:22.625Z,48.90
2019-03-19T11:51:22.801Z,48.80
2019-03-19T11:52:22.981Z,49.18
2019-03-19T11:53:23.148Z,49.56
2019-03-19T11:54:23.318Z,49.18
2019-03-19T11:55:23.523Z,49.02
2019-03-19T11:56:23.913Z,48.83
2019-03-19T11:57:24.154Z,48.25
2019-03-19T11:58:24.163Z,48.07
2019-03-19T11:59:24.267Z,47.68
2019-03-19T12:00:24.632Z,48.42
2019-03-19T12:01:28.027Z,48.42
2019-03-19T12:02:26.147Z,50.30
2019-03-19T12:03:25.062Z,50.78
2019-03-19T12:04:25.187Z,51.35
2019-03-19T12:05:25.353Z,51.06
2019-03-19T12:06:25.536Z,50.99
2019-03-19T12:07:25.717Z,50.13
2019-03-19T12:08:25.874Z,49.85
2019-03-19T12:09:26.040Z,49.47
2019-03-19T12:10:26.223Z,49.47
2019-03-19T12:11:26.409Z,48.44
2019-03-19T12:12:28.184Z,48.63
2019-03-19T12:13:26.841Z,47.97
2019-03-19T12:14:27.104Z,47.97
2019-03-19T12:15:27.184Z,48.25
2019-03-19T12:16:27.291Z,48.35
2019-03-19T12:17:27.499Z,48.35
2019-03-19T12:18:27.956Z,48.54
2019-03-19T12:19:27.877Z,48.44
2019-03-19T12:20:28.710Z,48.07
2019-03-19T12:21:29.189Z,48.92
2019-03-19T12:22:28.481Z,48.92
2019-03-19T12:23:28.755Z,48.63
2019-03-19T12:24:28.879Z,48.63
2019-03-19T12:25:31.219Z,47.39
2019-03-19T12:26:29.431Z,47.11
2019-03-19T12:27:29.476Z,46.80
2019-03-19T12:28:39.311Z,46.13
2019-03-19T12:29:29.828Z,46.15
2019-03-19T12:30:30.100Z,45.97
2019-03-19T12:31:30.346Z,44.92
2019-03-19T12:32:30.321Z,45.68
2019-03-19T12:33:40.322Z,46.06
2019-03-19T12:34:30.754Z,45.49
2019-03-19T12:35:31.076Z,44.73
2019-03-19T12:36:31.235Z,44.82
2019-03-19T12:37:31.311Z,44.73
2019-03-19T12:38:31.484Z,45.01
2019-03-19T12:39:31.805Z,45.58
2019-03-19T12:40:36.908Z,45.87
2019-03-19T12:41:32.133Z,45.87
2019-03-19T12:42:32.187Z,46.15
2019-03-19T12:43:32.382Z,46.08
2019-03-19T12:44:32.555Z,45.61
2019-03-19T12:45:32.725Z,45.03
2019-03-19T12:46:32.917Z,45.61
2019-03-19T12:47:33.087Z,45.70
2019-03-19T12:48:33.263Z,46.18
2019-03-19T12:49:33.439Z,45.42
2019-03-19T12:50:33.610Z,46.06
2019-03-19T12:51:33.763Z,46.15
2019-03-19T12:52:33.921Z,46.44
2019-03-19T12:53:34.096Z,46.63
2019-03-19T12:54:34.276Z,47.18
2019-03-19T12:55:34.437Z,47.28
2019-03-19T12:56:34.613Z,47.56
2019-03-19T12:57:34.889Z,47.37
2019-03-19T12:58:34.937Z,47.20
2019-03-19T12:59:36.786Z,46.80